Time;durP1;ratioP1;P1;durP2;ratioP2;P2;SDS_P1;SDS_P2;PMS_P1;PMS_P2;Temp;Humidity;BMP_temperature;BMP_pressure;BME280_temperature;BME280_humidity;BME280_pressure;Samples;Min_cycle;Max_cycle;Signal;HPM_P1;HPM_P2
2021/03/30 00:00:41;;;;;;;30.63;15.63;;;;;;;12.85;99.54;102238.63;4964981;28;20527;-74
2021/03/30 00:03:07;;;;;;;33.20;15.45;;;;;;;12.92;97.96;102225.34;4966299;28;20031;-74
2021/03/30 00:05:32;;;;;;;33.65;16.48;;;;;;;13.05;97.68;102229.69;4970480;28;20038;-74
2021/03/30 00:07:58;;;;;;;33.47;16.25;;;;;;;12.96;97.57;102237.88;4969234;28;20514;-74
2021/03/30 00:10:31;;;;;;;38.97;16.27;;;;;;;13.07;97.51;102235.56;4967432;28;20022;-74
2021/03/30 00:12:56;;;;;;;31.85;15.48;;;;;;;13.17;96.83;102237.88;4968949;28;20058;-74
2021/03/30 00:15:22;;;;;;;35.67;16.70;;;;;;;13.03;97.04;102237.31;4970213;28;20070;-73
2021/03/30 00:17:47;;;;;;;34.58;16.80;;;;;;;12.99;97.61;102237.19;4953329;28;20050;-74
2021/03/30 00:20:15;;;;;;;36.53;16.50;;;;;;;12.96;97.20;102231.66;4971615;28;20046;-74
2021/03/30 00:22:41;;;;;;;29.55;16.10;;;;;;;12.93;97.20;102243.16;4967831;28;20054;-74
2021/03/30 00:25:09;;;;;;;35.95;15.63;;;;;;;12.84;98.04;102245.13;4971011;28;20119;-74
2021/03/30 00:27:35;;;;;;;35.78;16.88;;;;;;;12.74;98.87;102245.53;4958044;28;20440;-74
2021/03/30 00:30:01;;;;;;;31.52;16.25;;;;;;;12.76;98.59;102246.78;4954207;28;20109;-74
2021/03/30 00:32:27;;;;;;;33.10;15.20;;;;;;;12.88;97.53;102241.44;4971956;28;20054;-74
2021/03/30 00:34:52;;;;;;;32.70;16.45;;;;;;;12.83;98.03;102249.75;4967964;28;20027;-74
2021/03/30 00:37:18;;;;;;;26.58;14.18;;;;;;;12.88;97.57;102246.06;4969553;28;20064;-74
2021/03/30 00:39:43;;;;;;;34.97;15.25;;;;;;;12.82;96.93;102248.16;4953572;28;20041;-74
2021/03/30 00:42:09;;;;;;;27.60;13.65;;;;;;;12.97;96.08;102241.38;4970812;28;20038;-74
2021/03/30 00:44:34;;;;;;;31.00;13.27;;;;;;;12.92;95.08;102246.97;4964412;28;20033;-74
2021/03/30 00:47:02;;;;;;;23.98;12.60;;;;;;;12.90;94.82;102249.22;4967136;28;20042;-74
2021/03/30 00:49:31;;;;;;;31.92;13.07;;;;;;;12.81;94.64;102248.50;4964159;28;20053;-74
2021/03/30 00:51:57;;;;;;;32.20;13.27;;;;;;;12.73;95.22;102246.66;4970639;28;20384;-74
2021/03/30 00:54:46;;;;;;;27.80;11.98;;;;;;;12.77;94.36;102247.56;4955282;28;20042;-74
2021/03/30 00:57:13;;;;;;;32.03;13.02;;;;;;;12.45;95.27;102249.06;4971157;28;20038;-74
2021/03/30 00:59:39;;;;;;;32.80;12.95;;;;;;;12.34;96.34;102251.38;4953045;28;20038;-74
2021/03/30 01:02:05;;;;;;;26.17;12.32;;;;;;;12.19;96.20;102245.72;4964819;28;20031;-74
2021/03/30 01:04:31;;;;;;;25.67;12.55;;;;;;;12.07;97.05;102248.31;4958669;28;20038;-74
2021/03/30 01:06:56;;;;;;;21.27;12.15;;;;;;;12.04;97.03;102252.47;4947139;28;20027;-74
2021/03/30 01:09:45;;;;;;;28.38;12.57;;;;;;;11.75;97.89;102249.72;4961409;28;20102;-74
2021/03/30 01:12:29;;;;;;;27.38;12.60;;;;;;;11.81;98.01;102253.06;4969484;28;20043;-74
2021/03/30 01:15:17;;;;;;;26.83;11.88;;;;;;;11.69;97.83;102262.59;4964415;28;20038;-74
2021/03/30 01:17:46;;;;;;;22.10;11.68;;;;;;;11.57;99.08;102256.25;4966066;28;20038;-74
2021/03/30 01:20:17;;;;;;;26.05;13.30;;;;;;;11.58;99.15;102252.44;4953773;28;20050;-74
2021/03/30 01:23:03;;;;;;;;;;;;;;;11.59;99.33;102254.03;4961929;28;20026;-74
2021/03/30 01:25:29;;;;;;;25.02;12.40;;;;;;;11.61;100.00;102255.28;4936130;28;19918;-75
2021/03/30 01:28:19;;;;;;;32.08;13.63;;;;;;;11.57;100.00;102264.38;4971195;28;20046;-74
2021/03/30 01:30:47;;;;;;;23.45;12.90;;;;;;;11.66;100.00;102257.84;4969731;28;20066;-74
2021/03/30 01:33:16;;;;;;;30.83;14.07;;;;;;;11.80;99.31;102260.34;4970806;28;20026;-74
2021/03/30 01:35:42;;;;;;;27.85;13.68;;;;;;;11.66;100.00;102267.84;4965877;28;20047;-74
2021/03/30 01:38:12;;;;;;;37.40;14.45;;;;;;;11.70;99.19;102255.31;4969592;28;20114;-74
2021/03/30 01:40:38;;;;;;;28.48;14.10;;;;;;;11.47;100.00;102256.59;4949323;28;20037;-73
2021/03/30 01:43:07;;;;;;;29.25;14.27;;;;;;;11.55;100.00;102255.78;4964303;28;20041;-73
2021/03/30 01:45:33;;;;;;;31.50;14.65;;;;;;;11.61;100.00;102249.88;4963441;28;20076;-73
2021/03/30 01:48:01;;;;;;;31.08;15.15;;;;;;;11.74;100.00;102246.25;4968477;28;20053;-74
2021/03/30 01:50:27;;;;;;;29.73;14.68;;;;;;;11.58;100.00;102250.53;4961018;28;20062;-73
2021/03/30 01:52:53;;;;;;;33.03;14.85;;;;;;;11.65;100.00;102253.56;4971197;28;20035;-73
2021/03/30 01:55:20;;;;;;;27.95;14.93;;;;;;;11.49;99.90;102248.97;4970930;28;20022;-74
2021/03/30 01:57:58;;;;;;;31.13;15.60;;;;;;;11.38;100.00;102242.34;4974401;28;20054;-73
2021/03/30 02:00:28;;;;;;;30.20;14.73;;;;;;;11.46;100.00;102242.31;4965751;28;20030;-74
2021/03/30 02:02:55;;;;;;;25.58;14.40;;;;;;;11.27;100.00;102246.47;4957118;28;20030;-73
2021/03/30 02:05:21;;;;;;;32.78;14.82;;;;;;;11.41;100.00;102249.78;4959944;28;20027;-73
2021/03/30 02:07:51;;;;;;;34.92;15.20;;;;;;;11.45;100.00;102248.84;4972242;28;20488;-72
2021/03/30 02:10:29;;;;;;;32.67;15.13;;;;;;;11.44;100.00;102249.16;4960268;28;20031;-73
2021/03/30 02:13:00;;;;;;;30.20;14.73;;;;;;;11.39;100.00;102249.31;4974541;28;20046;-73
2021/03/30 02:15:26;;;;;;;33.97;14.25;;;;;;;11.53;100.00;102249.94;4971614;28;20054;-74
2021/03/30 02:17:59;;;;;;;35.15;14.95;;;;;;;11.54;100.00;102238.00;4972808;28;20030;-73
2021/03/30 02:20:37;;;;;;;32.03;14.27;;;;;;;11.31;100.00;102239.31;4967115;28;20174;-73
2021/03/30 02:23:12;;;;;;;34.42;14.95;;;;;;;11.36;100.00;102241.88;4956197;28;20030;-73
2021/03/30 02:25:45;;;;;;;35.10;14.85;;;;;;;11.39;100.00;102246.63;4969245;28;20043;-73
2021/03/30 02:28:14;;;;;;;31.35;14.20;;;;;;;11.37;100.00;102248.84;4974163;28;20046;-73
2021/03/30 02:30:41;;;;;;;41.58;14.93;;;;;;;11.40;100.00;102250.91;4956236;28;20539;-73
2021/03/30 02:33:09;;;;;;;30.05;14.20;;;;;;;11.32;100.00;102249.81;4953894;28;20421;-73
2021/03/30 02:35:37;;;;;;;29.42;14.73;;;;;;;11.21;100.00;102262.03;4973300;28;20031;-73
2021/03/30 02:38:04;;;;;;;30.50;15.13;;;;;;;11.34;100.00;102252.97;4971359;28;20031;-73
2021/03/30 02:40:30;;;;;;;31.70;14.98;;;;;;;11.25;100.00;102254.88;4972784;28;20496;-72
2021/03/30 02:42:58;;;;;;;34.33;14.55;;;;;;;11.22;100.00;102258.25;4973725;28;20035;-73
2021/03/30 02:45:27;;;;;;;38.50;16.10;;;;;;;11.41;100.00;102247.09;4952279;28;20114;-73
2021/03/30 02:47:57;;;;;;;39.22;15.43;;;;;;;11.39;100.00;102252.81;4973588;28;20074;-72
2021/03/30 02:50:23;;;;;;;31.87;14.10;;;;;;;11.17;100.00;102260.31;4972639;28;20047;-73
2021/03/30 02:52:50;;;;;;;34.40;15.48;;;;;;;11.12;100.00;102263.94;4972384;28;20149;-72
2021/03/30 02:55:16;;;;;;;30.73;15.45;;;;;;;11.17;100.00;102263.00;4971543;28;20510;-74
2021/03/30 02:57:42;;;;;;;32.10;15.48;;;;;;;11.16;100.00;102264.09;4972873;28;20061;-73
2021/03/30 03:00:12;;;;;;;28.98;14.38;;;;;;;11.13;100.00;102262.81;4972958;28;20050;-72
2021/03/30 03:02:38;;;;;;;33.38;14.95;;;;;;;11.00;100.00;102269.19;4935772;28;20045;-74
2021/03/30 03:05:07;;;;;;;31.55;14.07;;;;;;;10.83;100.00;102267.28;4967978;28;20035;-73
2021/03/30 03:07:34;;;;;;;38.38;14.00;;;;;;;10.92;100.00;102267.28;4972999;28;20476;-73
2021/03/30 03:10:01;;;;;;;26.95;13.45;;;;;;;10.96;100.00;102268.22;4952756;28;20448;-73
2021/03/30 03:12:30;;;;;;;30.35;13.73;;;;;;;10.77;100.00;102259.66;4973123;28;20031;-73
2021/03/30 03:14:58;;;;;;;30.60;13.63;;;;;;;10.65;100.00;102262.97;4967755;28;20035;-73
2021/03/30 03:17:25;;;;;;;24.45;12.70;;;;;;;10.59;100.00;102264.22;4959458;28;20476;-73
2021/03/30 03:19:51;;;;;;;35.25;13.48;;;;;;;10.72;100.00;102255.22;4955166;28;20106;-73
2021/03/30 03:22:17;;;;;;;32.58;12.90;;;;;;;10.73;100.00;102258.69;4959760;28;20125;-74
2021/03/30 03:24:46;;;;;;;25.80;12.75;;;;;;;10.52;100.00;102255.03;4972746;28;20477;-74
2021/03/30 03:27:11;;;;;;;24.17;13.07;;;;;;;10.53;100.00;102254.72;4960303;28;20047;-74
2021/03/30 03:29:37;;;;;;;28.48;12.65;;;;;;;10.47;100.00;102255.97;4972039;28;20097;-74
2021/03/30 03:32:02;;;;;;;30.02;12.45;;;;;;;10.50;100.00;102255.34;4966633;28;20070;-74
2021/03/30 03:34:28;;;;;;;28.33;12.38;;;;;;;10.50;100.00;102255.34;4963999;28;20030;-74
2021/03/30 03:37:02;;;;;;;28.00;11.68;;;;;;;10.59;100.00;102253.47;4961453;28;20043;-74
2021/03/30 03:39:28;;;;;;;23.83;10.98;;;;;;;10.38;100.00;102249.78;4961880;28;20053;-73
2021/03/30 03:41:53;;;;;;;30.08;11.80;;;;;;;10.29;100.00;102254.34;4956814;28;20039;-73
2021/03/30 03:44:19;;;;;;;26.05;11.30;;;;;;;10.34;100.00;102253.41;4958166;28;20407;-73
2021/03/30 03:46:48;;;;;;;20.17;10.93;;;;;;;10.38;100.00;102248.97;4965323;28;20399;-73
2021/03/30 03:49:13;;;;;;;19.35;10.40;;;;;;;10.41;100.00;102259.13;4972230;28;20042;-74
2021/03/30 03:51:43;;;;;;;28.02;11.32;;;;;;;10.30;100.00;102264.00;4969969;28;20038;-74
2021/03/30 03:54:12;;;;;;;24.10;11.48;;;;;;;10.13;100.00;102255.88;4965962;28;20046;-73
2021/03/30 03:56:44;;;;;;;22.75;11.15;;;;;;;10.23;100.00;102257.50;4970636;28;20518;-74
2021/03/30 03:59:16;;;;;;;27.02;10.55;;;;;;;10.20;100.00;102266.97;4962214;28;20395;-74
2021/03/30 04:02:07;;;;;;;22.65;10.55;;;;;;;10.25;100.00;102257.97;4957018;28;20038;-74
2021/03/30 04:04:56;;;;;;;25.25;10.02;;;;;;;10.20;100.00;102253.53;4960454;28;20128;-74
2021/03/30 04:07:26;;;;;;;22.35;10.23;;;;;;;10.25;100.00;102256.09;4964922;28;20038;-73
2021/03/30 04:09:53;;;;;;;23.10;10.25;;;;;;;10.25;99.13;102269.53;4953060;28;20038;-73
2021/03/30 04:12:21;;;;;;;18.25;10.18;;;;;;;9.99;99.52;102255.16;4968890;28;20027;-74
2021/03/30 04:14:48;;;;;;;19.15;10.10;;;;;;;9.86;100.00;102256.88;4937774;28;20031;-73
2021/03/30 04:17:17;;;;;;;23.80;10.15;;;;;;;9.72;100.00;102252.66;4953827;28;20150;-74
2021/03/30 04:19:44;;;;;;;19.48;9.68;;;;;;;9.82;100.00;102255.09;4953348;28;20031;-73
2021/03/30 04:22:11;;;;;;;20.67;9.70;;;;;;;9.82;100.00;102260.47;4972300;28;20033;-74
2021/03/30 04:24:37;;;;;;;18.23;9.68;;;;;;;10.01;100.00;102252.94;4958257;28;20127;-74
2021/03/30 04:27:07;;;;;;;24.63;9.27;;;;;;;9.95;99.03;102255.00;4971316;28;20178;-73
2021/03/30 04:29:32;;;;;;;20.92;9.40;;;;;;;9.86;99.65;102262.25;4970690;28;20031;-73
2021/03/30 04:32:00;;;;;;;21.35;10.20;;;;;;;9.88;99.87;102257.34;4957891;28;20046;-73
2021/03/30 04:34:25;;;;;;;20.75;9.30;;;;;;;9.87;99.74;102263.81;4963272;28;20042;-73
2021/03/30 04:36:50;;;;;;;20.38;9.38;;;;;;;9.92;99.24;102257.50;4963595;28;20046;-73
2021/03/30 04:39:16;;;;;;;20.67;9.90;;;;;;;9.67;99.83;102261.69;4960214;28;20027;-74
2021/03/30 04:41:41;;;;;;;17.85;8.93;;;;;;;9.79;100.00;102261.09;4959906;28;20035;-73
2021/03/30 04:44:07;;;;;;;18.70;9.48;;;;;;;9.90;99.82;102265.09;4951498;28;20042;-73
2021/03/30 04:46:33;;;;;;;21.67;9.55;;;;;;;9.80;99.00;102271.56;4965213;28;20403;-73
2021/03/30 04:48:58;;;;;;;19.80;9.75;;;;;;;9.87;98.85;102271.13;4970653;28;20098;-73
2021/03/30 04:51:24;;;;;;;22.45;10.50;;;;;;;9.93;98.43;102272.53;4970405;28;20034;-73
2021/03/30 04:53:50;;;;;;;25.02;10.43;;;;;;;9.93;98.85;102276.03;4970138;28;20041;-73
2021/03/30 04:56:15;;;;;;;24.73;11.27;;;;;;;10.18;98.13;102282.66;4971502;28;20027;-74
2021/03/30 04:58:41;;;;;;;29.33;11.50;;;;;;;10.09;97.48;102278.31;4954318;28;20146;-74
2021/03/30 05:01:07;;;;;;;26.23;11.30;;;;;;;9.86;98.30;102280.28;4964054;28;20117;-74
2021/03/30 05:03:32;;;;;;;20.77;10.52;;;;;;;9.83;99.06;102284.38;4971392;28;20035;-73
2021/03/30 05:05:57;;;;;;;23.25;10.60;;;;;;;9.65;100.00;102290.78;4970914;28;20038;-73
2021/03/30 05:08:24;;;;;;;22.92;10.52;;;;;;;9.74;100.00;102291.59;4967605;28;20062;-73
2021/03/30 05:10:51;;;;;;;32.10;12.55;;;;;;;9.54;100.00;102291.34;4970675;28;20047;-74
2021/03/30 05:13:17;;;;;;;33.65;12.25;;;;;;;9.69;100.00;102291.75;4967798;28;20026;-74
2021/03/30 05:15:42;;;;;;;28.20;11.80;;;;;;;9.76;100.00;102294.78;4951378;28;20027;-74
2021/03/30 05:18:08;;;;;;;27.98;12.75;;;;;;;9.88;100.00;102302.28;4959084;28;20038;-74
2021/03/30 05:20:33;;;;;;;32.30;13.00;;;;;;;9.77;100.00;102301.78;4963764;28;20039;-74
2021/03/30 05:22:59;;;;;;;27.27;12.68;;;;;;;9.67;100.00;102301.22;4970512;28;20043;-74
2021/03/30 05:25:24;;;;;;;28.15;13.10;;;;;;;9.82;100.00;102301.63;4973087;28;20035;-74
2021/03/30 05:27:50;;;;;;;28.65;12.23;;;;;;;9.63;100.00;102298.34;4958452;28;20063;-73
2021/03/30 05:30:16;;;;;;;29.27;13.38;;;;;;;9.70;100.00;102300.59;4965804;28;20035;-73
2021/03/30 05:32:42;;;;;;;28.92;13.88;;;;;;;9.84;100.00;102304.00;4958927;28;20427;-73
2021/03/30 05:35:10;;;;;;;34.72;13.88;;;;;;;9.73;100.00;102308.88;4975477;28;20432;-74
2021/03/30 05:37:35;;;;;;;31.00;14.73;;;;;;;9.76;100.00;102305.53;4972273;28;20165;-74
2021/03/30 05:40:01;;;;;;;35.63;15.80;;;;;;;10.06;100.00;102311.25;4974300;28;20054;-73
2021/03/30 05:42:26;;;;;;;34.08;15.32;;;;;;;10.24;100.00;102305.63;4970789;28;20057;-73
2021/03/30 05:44:53;;;;;;;41.55;16.15;;;;;;;10.49;100.00;102312.22;4969828;28;20484;-73
2021/03/30 05:47:24;;;;;;;37.88;16.55;;;;;;;10.58;100.00;102307.66;4956572;28;20027;-73
2021/03/30 05:49:51;;;;;;;38.05;16.60;;;;;;;10.61;100.00;102305.13;4971645;28;20035;-73
2021/03/30 05:52:42;;;;;;;35.30;17.38;;;;;;;10.65;100.00;102308.78;4968397;28;20419;-73
2021/03/30 05:55:10;;;;;;;40.75;16.85;;;;;;;10.73;100.00;102305.31;4969675;28;20027;-73
2021/03/30 05:57:38;;;;;;;41.50;17.23;;;;;;;10.82;100.00;102305.31;4970788;28;20047;-73
2021/03/30 06:00:06;;;;;;;37.85;16.80;;;;;;;10.90;100.00;102321.50;4970159;28;20031;-74
2021/03/30 06:02:53;;;;;;;34.72;15.45;;;;;;;10.99;100.00;102304.53;4972406;28;20035;-74
2021/03/30 06:05:20;;;;;;;38.72;15.30;;;;;;;11.06;99.02;102311.03;4966023;28;20039;-73
2021/03/30 06:07:46;;;;;;;38.88;16.42;;;;;;;11.07;99.31;102312.63;4969249;28;20186;-73
2021/03/30 06:10:23;;;;;;;35.83;16.05;;;;;;;11.26;98.67;102321.22;4969819;28;20050;-74
2021/03/30 06:12:49;;;;;;;33.78;15.65;;;;;;;11.23;98.35;102321.03;4954363;28;20118;-75
2021/03/30 06:15:35;;;;;;;34.60;15.70;;;;;;;11.26;98.49;102329.31;4965579;28;20432;-74
2021/03/30 06:18:15;;;;;;;35.95;15.25;;;;;;;11.31;97.29;102329.13;4895918;29;20052;-73
2021/03/30 06:20:41;;;;;;;33.17;16.15;;;;;;;11.39;97.34;102324.84;4901402;29;20234;-74
2021/03/30 06:23:07;;;;;;;31.35;14.90;;;;;;;11.45;96.69;102327.06;4885245;29;20057;-74
2021/03/30 06:25:36;;;;;;;32.45;14.82;;;;;;;11.60;95.87;102333.84;4874447;29;20028;-74
2021/03/30 06:28:26;;;;;;;34.67;15.65;;;;;;;11.65;95.18;102342.59;4892527;29;20458;-73
2021/03/30 06:31:01;;;;;;;37.08;15.25;;;;;;;11.62;94.04;102350.53;4891139;29;20044;-73
2021/03/30 06:33:30;;;;;;;27.08;14.32;;;;;;;11.73;93.99;102347.19;4887522;29;20107;-74
2021/03/30 06:36:14;;;;;;;28.23;14.77;;;;;;;11.91;93.54;102344.47;4890333;29;20054;-73
2021/03/30 06:38:58;;;;;;;32.13;15.00;;;;;;;11.99;93.03;102355.25;4895049;29;20073;-73
2021/03/30 06:44:27;;;;;;;39.97;14.97;;;;;;;12.21;91.74;102352.34;4891811;29;20085;-75
2021/03/30 06:46:59;;;;;;;35.78;14.98;;;;;;;12.31;92.14;102359.28;4886290;29;20502;-75
2021/03/30 06:49:28;;;;;;;28.27;13.27;;;;;;;12.63;89.93;102354.03;4892618;29;20072;-74
2021/03/30 06:51:54;;;;;;;27.23;13.60;;;;;;;12.80;90.01;102355.03;4891364;29;20525;-75
2021/03/30 06:54:20;;;;;;;27.48;13.35;;;;;;;12.91;88.63;102359.75;4886930;28;20118;-75
2021/03/30 06:56:53;;;;;;;30.10;13.48;;;;;;;13.06;88.23;102353.81;4956023;28;20054;-75
2021/03/30 06:59:19;;;;;;;26.42;12.13;;;;;;;13.19;87.71;102339.22;4973251;28;20030;-75
2021/03/30 07:01:46;;;;;;;27.20;12.95;;;;;;;13.55;86.53;102344.00;4952716;28;20129;-75
2021/03/30 07:04:13;;;;;;;25.10;13.05;;;;;;;13.83;84.51;102347.72;4972677;28;20087;-75
2021/03/30 07:06:40;;;;;;;31.75;12.13;;;;;;;13.99;83.04;102358.69;4969410;28;20035;-75
2021/03/30 07:09:09;;;;;;;29.38;12.32;;;;;;;14.29;81.24;102350.06;4967032;28;20031;-75
2021/03/30 07:11:37;;;;;;;28.88;11.63;;;;;;;14.41;80.29;102352.00;4964729;28;20062;-75
2021/03/30 07:14:04;;;;;;;26.40;11.23;;;;;;;14.56;80.16;102353.22;4962225;28;20030;-75
2021/03/30 07:16:34;;;;;;;23.00;10.90;;;;;;;14.82;78.92;102369.97;4968505;28;20031;-75
2021/03/30 07:19:01;;;;;;;25.42;10.52;;;;;;;15.07;75.79;102366.88;4970665;28;20555;-75
2021/03/30 07:21:34;;;;;;;26.65;10.73;;;;;;;15.02;76.03;102367.09;4954315;28;20077;-75
2021/03/30 07:24:06;;;;;;;22.70;11.20;;;;;;;15.29;75.47;102371.78;4972569;28;20571;-75
2021/03/30 07:26:41;;;;;;;21.00;10.20;;;;;;;15.49;72.79;102371.97;4973212;28;20443;-75
2021/03/30 07:29:10;;;;;;;22.35;9.48;;;;;;;15.67;72.02;102370.53;4972966;28;20035;-75
2021/03/30 07:31:53;;;;;;;21.70;9.32;;;;;;;15.82;72.00;102365.13;4961989;28;20031;-75
2021/03/30 07:34:36;;;;;;;19.80;9.68;;;;;;;16.11;70.61;102378.34;4973081;28;20038;-75
2021/03/30 07:37:06;;;;;;;21.20;9.15;;;;;;;16.37;70.54;102385.19;4951027;28;20522;-75
2021/03/30 07:39:34;;;;;;;18.50;8.38;;;;;;;16.54;68.80;102377.50;4971106;28;20053;-75
2021/03/30 07:41:59;;;;;;;23.00;8.25;;;;;;;16.77;67.43;102381.16;4982815;23;20040;-78
2021/03/30 07:44:27;;;;;;;19.23;8.88;;;;;;;16.81;67.29;102381.22;4974887;28;20050;-77
2021/03/30 07:46:53;;;;;;;23.90;8.13;;;;;;;16.86;65.56;102384.47;4970080;28;20580;-76
2021/03/30 07:49:23;;;;;;;17.38;8.50;;;;;;;16.90;66.27;102379.88;4970050;28;20030;-76
2021/03/30 07:51:48;;;;;;;23.33;9.40;;;;;;;16.91;66.18;102388.84;4976877;28;20423;-78
2021/03/30 07:54:20;;;;;;;22.10;8.57;;;;;;;17.11;65.69;102388.53;4972560;28;20027;-76
2021/03/30 07:56:47;;;;;;;20.23;8.10;;;;;;;17.02;66.44;102390.66;4974200;28;20069;-77
2021/03/30 08:00:00;;;;;;;19.63;8.32;;;;;;;17.28;63.94;102387.34;4976412;28;20039;-78
2021/03/30 08:02:27;;;;;;;18.52;7.97;;;;;;;17.37;63.37;102398.81;4947751;28;20042;-76
2021/03/30 08:05:08;;;;;;;20.38;8.40;;;;;;;17.41;64.36;102399.66;4976259;28;20415;-77
2021/03/30 08:07:48;;;;;;;16.73;7.05;;;;;;;17.79;64.59;102399.69;4966618;28;20046;-77
2021/03/30 08:10:45;;;;;;;16.05;6.93;;;;;;;18.01;63.28;102403.59;4975739;28;20042;-76
2021/03/30 08:13:24;;;;;;;20.77;7.68;;;;;;;18.07;64.31;102404.88;4967898;28;20043;-77
2021/03/30 08:16:00;;;;;;;16.75;7.80;;;;;;;18.42;62.87;102407.44;4966594;28;20046;-77
2021/03/30 08:18:28;;;;;;;21.08;7.50;;;;;;;18.74;61.49;102409.53;4977641;28;20067;-78
2021/03/30 08:20:58;;;;;;;14.98;7.03;;;;;;;18.77;60.58;102408.81;4970255;28;20042;-77
2021/03/30 08:23:25;;;;;;;13.85;7.40;;;;;;;19.05;58.85;102404.94;4971949;28;20344;-78
2021/03/30 08:25:54;;;;;;;18.55;7.28;;;;;;;19.20;59.42;102404.72;4972758;28;20487;-78
2021/03/30 08:28:59;;;;;;;14.30;6.68;;;;;;;19.44;60.77;102406.25;4963965;28;20039;-78
2021/03/30 08:31:27;;;;;;;15.23;6.63;;;;;;;19.61;58.71;102406.47;4957195;28;20054;-77
2021/03/30 08:33:56;;;;;;;15.10;6.63;;;;;;;19.87;57.96;102405.59;4960875;28;20038;-78
2021/03/30 08:36:34;;;;;;;15.75;6.55;;;;;;;19.96;57.66;102416.22;4969968;28;20019;-78
2021/03/30 08:39:03;;;;;;;18.92;7.20;;;;;;;20.14;57.83;102412.50;4955636;28;20124;-76
2021/03/30 08:41:41;;;;;;;13.93;6.30;;;;;;;20.18;59.48;102409.78;4953237;28;20042;-77
2021/03/30 08:44:11;;;;;;;17.95;7.00;;;;;;;20.35;56.47;102409.19;4963654;28;20042;-78
2021/03/30 08:46:38;;;;;;;18.03;6.63;;;;;;;20.17;58.47;102410.97;4962581;28;20083;-77
2021/03/30 08:49:32;;;;;;;15.88;6.80;;;;;;;20.43;57.92;102413.56;4961519;28;20693;-78
2021/03/30 08:52:01;;;;;;;17.10;6.55;;;;;;;20.52;56.90;102411.28;4955525;28;20023;-76
2021/03/30 08:54:36;;;;;;;11.70;6.97;;;;;;;20.86;54.45;102415.47;4971206;28;20045;-78
2021/03/30 08:57:07;;;;;;;14.85;6.35;;;;;;;20.93;56.53;102426.47;4964227;28;20079;-77
2021/03/30 08:59:34;;;;;;;12.93;6.03;;;;;;;20.73;55.99;102427.88;4956559;28;20039;-76
2021/03/30 09:02:08;;;;;;;17.13;6.75;;;;;;;21.16;54.77;102424.28;4962503;28;20106;-76
2021/03/30 09:04:36;;;;;;;20.48;7.32;;;;;;;20.73;55.56;102425.13;4964865;28;20066;-76
2021/03/30 09:07:03;;;;;;;13.00;5.93;;;;;;;20.98;56.35;102420.63;4958611;28;20043;-76
2021/03/30 09:09:36;;;;;;;13.45;6.53;;;;;;;21.21;55.71;102423.94;4958706;28;20624;-76
2021/03/30 09:12:03;;;;;;;12.98;6.70;;;;;;;21.44;54.22;102426.38;4959777;28;20035;-77
2021/03/30 09:14:31;;;;;;;12.05;6.22;;;;;;;21.64;54.91;102426.88;4954800;28;20590;-77
2021/03/30 09:17:08;;;;;;;13.13;6.78;;;;;;;21.51;53.78;102427.19;4955305;28;20035;-77
2021/03/30 09:19:46;;;;;;;13.50;6.63;;;;;;;21.93;53.65;102421.09;4957491;28;20416;-78
2021/03/30 09:22:38;;;;;;;14.70;6.40;;;;;;;22.14;52.74;102417.59;4961947;28;20049;-78
2021/03/30 09:27:41;;;;;;;11.50;6.18;;;;;;;22.43;52.78;102416.47;4984518;28;20035;-75
2021/03/30 09:30:29;;;;;;;12.73;6.60;;;;;;;22.62;53.74;102426.28;4971185;28;20031;-76
2021/03/30 09:32:57;;;;;;;12.18;6.28;;;;;;;22.59;51.99;102425.09;4888464;29;20079;-76
2021/03/30 09:35:24;;;;;;;12.52;6.53;;;;;;;22.15;53.15;102425.44;4913594;29;20453;-77
2021/03/30 09:38:00;;;;;;;15.98;6.72;;;;;;;21.92;53.50;102421.47;4900361;29;20112;-77
2021/03/30 09:40:29;;;;;;;12.70;6.20;;;;;;;22.54;52.78;102410.94;4908204;29;20521;-75
2021/03/30 09:42:54;;;;;;;13.05;6.55;;;;;;;22.82;52.57;102406.22;4910904;29;20099;-76
2021/03/30 09:45:31;;;;;;;9.57;5.82;;;;;;;22.75;53.73;102402.72;4899039;29;20040;-75
2021/03/30 09:48:00;;;;;;;17.73;6.45;;;;;;;23.41;51.58;102406.47;4900363;29;20040;-76
2021/03/30 09:50:27;;;;;;;12.90;6.53;;;;;;;23.70;51.52;102400.44;4909284;29;20444;-76
2021/03/30 09:52:53;;;;;;;14.30;6.18;;;;;;;23.95;50.33;102406.59;4905362;29;20043;-73
2021/03/30 09:55:39;;;;;;;13.05;6.18;;;;;;;23.69;51.15;102395.34;4878024;29;20037;-74
2021/03/30 09:58:10;;;;;;;11.85;5.82;;;;;;;22.86;53.62;102396.00;4891896;29;20055;-76
2021/03/30 10:00:38;;;;;;;11.50;5.95;;;;;;;23.55;52.22;102398.97;4896176;29;20153;-74
2021/03/30 10:03:06;;;;;;;11.88;5.68;;;;;;;24.11;50.03;102398.66;4898093;29;20553;-76
2021/03/30 10:05:36;;;;;;;14.50;5.88;;;;;;;23.60;51.67;102395.78;4909487;29;20030;-74
2021/03/30 10:08:05;;;;;;;11.27;5.75;;;;;;;23.77;51.28;102392.13;4904332;29;20757;-76
2021/03/30 10:10:46;;;;;;;10.45;4.70;;;;;;;24.39;50.06;102386.59;4919658;28;20050;-76
2021/03/30 10:13:50;;;;;;;11.98;5.28;;;;;;;24.39;50.24;102385.84;4965848;28;20035;-77
2021/03/30 10:16:16;;;;;;;17.98;4.45;;;;;;;24.80;49.74;102390.19;4914801;29;20345;-75
2021/03/30 10:18:44;;;;;;;10.30;5.18;;;;;;;24.57;50.12;102390.00;4912904;29;20038;-76
2021/03/30 10:21:16;;;;;;;8.48;3.80;;;;;;;24.80;49.96;102381.91;4911809;29;20119;-77
2021/03/30 10:23:48;;;;;;;11.50;4.85;;;;;;;24.80;49.72;102387.44;4914132;29;20109;-76
2021/03/30 10:26:25;;;;;;;7.40;3.90;;;;;;;25.23;48.67;102387.72;4908254;29;20178;-76
2021/03/30 10:29:00;;;;;;;8.65;3.90;;;;;;;25.40;47.11;102386.75;4916948;29;20216;-78
2021/03/30 10:31:34;;;;;;;7.38;3.45;;;;;;;25.75;46.53;102391.00;4911570;29;20341;-76
2021/03/30 10:33:59;;;;;;;7.63;3.33;;;;;;;25.67;46.36;102384.81;4914570;29;20080;-76
2021/03/30 10:36:46;;;;;;;5.53;3.17;;;;;;;25.85;45.94;102385.34;4912085;29;20842;-74
2021/03/30 10:39:11;;;;;;;5.40;2.58;;;;;;;25.62;47.24;102390.00;4842202;29;20042;-77
2021/03/30 10:41:42;;;;;;;7.22;3.28;;;;;;;25.94;45.59;102388.34;4841747;29;20057;-77
2021/03/30 10:44:09;;;;;;;6.05;2.50;;;;;;;26.11;45.75;102386.56;4839911;29;20075;-73
2021/03/30 10:46:43;;;;;;;5.30;2.55;;;;;;;26.11;44.75;102381.03;4859310;29;20108;-77
2021/03/30 10:49:09;;;;;;;5.30;2.70;;;;;;;26.26;44.43;102389.84;4896500;29;20049;-75
2021/03/30 10:51:39;;;;;;;5.93;2.42;;;;;;;26.22;43.66;102380.84;4893021;29;20040;-76
2021/03/30 10:54:06;;;;;;;4.53;2.47;;;;;;;26.51;43.09;102382.72;4879318;29;20132;-74
2021/03/30 10:56:32;;;;;;;7.38;2.97;;;;;;;26.35;43.97;102374.28;4897254;29;20072;-78
2021/03/30 10:58:58;;;;;;;5.85;2.75;;;;;;;26.20;44.26;102374.94;4897992;29;20089;-75
2021/03/30 11:01:23;;;;;;;7.25;2.88;;;;;;;26.52;42.71;102369.66;4897668;29;20104;-76
2021/03/30 11:03:49;;;;;;;5.22;2.50;;;;;;;26.40;43.61;102364.75;4896788;29;20056;-76
2021/03/30 11:06:15;;;;;;;3.70;2.53;;;;;;;26.34;44.27;102369.19;4896898;29;20033;-77
2021/03/30 11:08:40;;;;;;;5.03;3.00;;;;;;;26.79;41.33;102362.06;4894965;29;20040;-77
2021/03/30 11:11:06;;;;;;;9.15;3.05;;;;;;;26.56;42.09;102367.59;4895727;29;20072;-77
2021/03/30 11:13:32;;;;;;;4.75;3.00;;;;;;;26.82;40.83;102368.75;4894849;29;20100;-76
2021/03/30 11:15:57;;;;;;;5.65;3.22;;;;;;;26.65;41.44;102371.38;4927687;28;20035;-77
2021/03/30 11:18:23;;;;;;;5.10;3.10;;;;;;;26.68;41.64;102362.25;4968391;28;20055;-77
2021/03/30 11:20:48;;;;;;;6.05;3.10;;;;;;;26.45;41.97;102365.03;4972161;28;20030;-77
2021/03/30 11:23:14;;;;;;;6.90;3.22;;;;;;;26.65;42.43;102357.53;4966602;28;20049;-75
2021/03/30 11:25:40;;;;;;;10.52;6.10;;;;;;;27.01;40.23;102360.44;4962344;28;20038;-77
2021/03/30 11:28:12;;;;;;;15.05;8.02;;;;;;;26.76;41.03;102360.16;4959350;28;20034;-77
2021/03/30 11:30:46;;;;;;;6.45;3.70;;;;;;;26.94;40.79;102354.28;4960460;28;20046;-75